Terminal Aerodrome Forecast
Issued by NWS Sterling, VA

Current Version | Previous Version | Graphics & Text | Print | Product List | Glossary On
Versions: 1 2 3 4 5 6 7 8 9 10 11 12 13
000
FTUS41 KLWX 240536
TAFMRB
TAF
KMRB 240536Z 2406/2506 00000KT P6SM FEW070 SCT250
     FM240800 00000KT 5SM BR FEW070 SCT250
     FM241000 00000KT 3SM BR FEW070 SCT250
     FM241200 VRB03KT P6SM FEW070 SCT250
     FM241500 17006KT P6SM SCT060=

USA.gov is the U.S. government's official web portal to all federal, state and local government web resources and services.